createdAt,value
2019-02-26T00:02:17.300Z,49.97
2019-02-26T00:04:49.149Z,53.00
2019-02-26T00:07:18.838Z,50.33
2019-02-26T00:09:51.241Z,49.57
2019-02-26T00:12:22.252Z,53.43
2019-02-26T00:14:52.937Z,46.97
2019-02-26T00:17:21.868Z,40.10
2019-02-26T00:19:51.160Z,49.50
2019-02-26T00:22:20.396Z,41.10
2019-02-26T00:24:49.587Z,47.70
2019-02-26T00:27:18.832Z,47.93
2019-02-26T00:29:49.228Z,44.70
2019-02-26T00:32:18.880Z,41.23
2019-02-26T00:34:48.098Z,42.50
2019-02-26T00:37:17.314Z,50.83
2019-02-26T00:39:47.507Z,45.70
2019-02-26T00:42:19.491Z,47.27
2019-02-26T00:44:51.320Z,45.30
2019-02-26T00:47:19.123Z,44.10
2019-02-26T00:49:50.612Z,40.47
2019-02-26T00:52:19.220Z,48.90
2019-02-26T00:54:48.419Z,42.03
2019-02-26T00:57:17.611Z,48.53
2019-02-26T00:59:48.085Z,47.07
2019-02-26T01:02:17.343Z,52.70
2019-02-26T01:04:48.444Z,48.37
2019-02-26T01:07:19.034Z,42.70
2019-02-26T01:09:50.141Z,41.77
2019-02-26T01:12:19.397Z,46.37
2019-02-26T01:14:50.245Z,49.53
2019-02-26T01:17:19.687Z,50.63
2019-02-26T01:19:48.911Z,46.43
2019-02-26T01:22:18.115Z,50.73
2019-02-26T01:24:48.169Z,47.07
2019-02-26T01:27:18.175Z,52.60
2019-02-26T01:29:51.238Z,54.60
2019-02-26T01:32:20.549Z,49.80
2019-02-26T01:34:49.523Z,41.40
2019-02-26T01:37:19.140Z,47.23
2019-02-26T01:39:50.042Z,40.00
2019-02-26T01:42:22.527Z,42.97
2019-02-26T01:44:50.172Z,41.83
2019-02-26T01:47:19.672Z,49.43
2019-02-26T01:49:51.119Z,45.37
2019-02-26T01:52:20.493Z,53.63
2019-02-26T01:54:51.270Z,51.60
2019-02-26T01:57:20.531Z,56.30
2019-02-26T01:59:50.150Z,50.67
2019-02-26T02:02:20.412Z,52.80
2019-02-26T02:04:50.747Z,51.47
2019-02-26T02:07:21.326Z,43.90
2019-02-26T02:09:51.370Z,43.53
2019-02-26T02:12:25.406Z,51.80
2019-02-26T02:14:52.548Z,54.40
2019-02-26T02:17:21.767Z,55.43
2019-02-26T02:19:51.019Z,53.90
2019-02-26T02:22:21.353Z,47.07
2019-02-26T02:24:51.609Z,56.53
2019-02-26T02:27:24.074Z,60.23
2019-02-26T02:29:53.465Z,57.50
2019-02-26T02:32:24.128Z,60.40
2019-02-26T02:34:58.317Z,55.17
2019-02-26T02:37:26.954Z,56.83
2019-02-26T02:39:55.898Z,56.33
2019-02-26T02:42:25.133Z,51.67
2019-02-26T02:44:54.351Z,57.23
2019-02-26T02:47:25.250Z,56.40
2019-02-26T02:49:54.403Z,63.67
2019-02-26T02:52:24.259Z,49.93
2019-02-26T02:54:54.551Z,48.33
2019-02-26T02:57:24.185Z,47.60
2019-02-26T02:59:56.909Z,49.03
2019-02-26T03:02:25.476Z,48.20
2019-02-26T03:04:54.711Z,48.70
2019-02-26T03:07:26.737Z,49.37
2019-02-26T03:09:54.767Z,50.77
2019-02-26T03:12:23.929Z,47.27
2019-02-26T03:14:53.125Z,50.13
2019-02-26T03:17:22.359Z,54.60
2019-02-26T03:19:51.532Z,52.63
2019-02-26T03:22:21.611Z,45.93
2019-02-26T03:24:52.009Z,54.43
2019-02-26T03:27:21.864Z,49.07
2019-02-26T03:29:52.511Z,52.03
2019-02-26T03:32:21.924Z,57.10
2019-02-26T03:34:51.150Z,58.33
2019-02-26T03:37:20.367Z,55.80
2019-02-26T03:39:49.599Z,50.83
2019-02-26T03:42:21.132Z,54.17
2019-02-26T03:44:49.620Z,56.53
2019-02-26T03:47:19.297Z,53.53
2019-02-26T03:49:48.534Z,56.27
2019-02-26T03:52:17.731Z,54.67
2019-02-26T03:54:48.614Z,55.73
2019-02-26T03:57:20.031Z,50.60
2019-02-26T03:59:48.653Z,55.90
2019-02-26T04:02:20.048Z,57.60
2019-02-26T04:04:51.691Z,57.60
2019-02-26T04:07:19.833Z,54.43
2019-02-26T04:09:52.421Z,57.10
2019-02-26T04:12:20.911Z,56.47
2019-02-26T04:14:50.195Z,56.80
2019-02-26T04:17:23.170Z,51.47
2019-02-26T04:19:50.227Z,46.77
2019-02-26T04:22:26.627Z,56.33
2019-02-26T04:25:04.096Z,52.23
2019-02-26T04:27:46.381Z,47.60
2019-02-26T04:31:14.663Z,58.27
2019-02-26T04:34:12.508Z,58.57
2019-02-26T04:37:08.052Z,55.53
2019-02-26T04:40:12.080Z,52.37
2019-02-26T04:43:07.235Z,49.13
2019-02-26T04:46:13.679Z,60.70
2019-02-26T04:48:43.007Z,54.17
2019-02-26T04:51:12.198Z,56.90
2019-02-26T04:53:41.411Z,51.53
2019-02-26T04:56:12.843Z,46.47
2019-02-26T04:58:42.469Z,47.13
2019-02-26T05:01:12.994Z,55.63
2019-02-26T05:03:43.111Z,58.83
2019-02-26T05:06:12.482Z,56.43
2019-02-26T05:08:42.893Z,56.20
2019-02-26T05:11:19.052Z,52.83
2019-02-26T05:13:42.903Z,58.83
2019-02-26T05:16:12.112Z,56.93
2019-02-26T05:18:43.823Z,52.83
2019-02-26T05:21:13.031Z,50.87
2019-02-26T05:23:42.344Z,54.07
2019-02-26T05:26:14.494Z,52.60
2019-02-26T05:28:44.184Z,50.97
2019-02-26T05:31:15.107Z,56.67
2019-02-26T05:33:44.130Z,53.13
2019-02-26T05:36:15.076Z,57.17
2019-02-26T05:38:44.103Z,59.33
2019-02-26T05:41:13.209Z,54.83
2019-02-26T05:43:42.445Z,58.53
2019-02-26T05:46:11.671Z,57.10
2019-02-26T05:48:43.005Z,53.53
2019-02-26T05:51:11.732Z,58.27
2019-02-26T05:53:40.973Z,62.80
2019-02-26T05:56:11.615Z,61.00
2019-02-26T05:58:44.062Z,61.10
2019-02-26T06:01:13.794Z,59.73
2019-02-26T06:03:44.247Z,59.30
2019-02-26T06:06:13.916Z,58.77
2019-02-26T06:08:43.163Z,57.63
2019-02-26T06:11:12.375Z,60.60
2019-02-26T06:13:43.243Z,59.53
2019-02-26T06:16:12.496Z,56.80
2019-02-26T06:18:43.862Z,58.00
2019-02-26T06:21:15.301Z,63.43
2019-02-26T06:23:47.012Z,60.53
2019-02-26T06:26:17.799Z,61.03
2019-02-26T06:28:53.235Z,62.50
2019-02-26T06:31:24.987Z,57.20
2019-02-26T06:33:53.815Z,68.33
2019-02-26T06:36:23.874Z,66.13
2019-02-26T06:38:54.146Z,65.30
2019-02-26T06:41:24.786Z,63.13
2019-02-26T06:43:55.090Z,70.40
2019-02-26T06:46:26.250Z,64.60
2019-02-26T06:48:55.325Z,67.17
2019-02-26T06:51:26.082Z,65.20
2019-02-26T06:53:56.964Z,62.80
2019-02-26T06:56:26.359Z,65.30
2019-02-26T06:58:55.803Z,62.53
2019-02-26T07:01:26.533Z,63.33
2019-02-26T07:03:56.822Z,59.43
2019-02-26T07:06:27.709Z,59.97
2019-02-26T07:08:57.202Z,61.33
2019-02-26T07:11:28.117Z,61.93
2019-02-26T07:13:58.835Z,57.03
2019-02-26T07:16:28.127Z,55.30
2019-02-26T07:18:59.022Z,55.47
2019-02-26T07:21:28.454Z,56.60
2019-02-26T07:23:58.818Z,51.63
2019-02-26T07:26:28.508Z,52.67
2019-02-26T07:28:57.821Z,54.97
2019-02-26T07:31:28.654Z,54.60
2019-02-26T07:33:58.190Z,54.50
2019-02-26T07:36:28.644Z,50.60
2019-02-26T07:38:57.955Z,53.07
2019-02-26T07:41:28.383Z,48.63
2019-02-26T07:43:59.962Z,57.47
2019-02-26T07:46:28.959Z,52.87
2019-02-26T07:48:59.984Z,50.73
2019-02-26T07:51:31.620Z,57.57
2019-02-26T07:54:01.000Z,52.30
2019-02-26T07:56:32.616Z,59.67
2019-02-26T07:59:04.225Z,51.67
2019-02-26T08:01:32.227Z,54.47
2019-02-26T08:04:01.487Z,52.53
2019-02-26T08:06:31.669Z,53.07
2019-02-26T08:09:04.663Z,53.87
2019-02-26T08:11:32.503Z,47.23
2019-02-26T08:14:01.792Z,45.93
2019-02-26T08:16:31.068Z,49.73
2019-02-26T08:19:01.378Z,46.47
2019-02-26T08:21:30.725Z,52.17
2019-02-26T08:24:00.056Z,44.33
2019-02-26T08:26:29.269Z,48.47
2019-02-26T08:29:00.263Z,45.67
2019-02-26T08:31:30.490Z,51.67
2019-02-26T08:33:59.862Z,48.63
2019-02-26T08:36:29.159Z,47.27
2019-02-26T08:38:58.505Z,51.87
2019-02-26T08:41:27.719Z,47.60
2019-02-26T08:43:58.852Z,47.33
2019-02-26T08:46:28.203Z,52.27
2019-02-26T08:48:57.455Z,56.07
2019-02-26T08:51:26.738Z,59.80
2019-02-26T08:53:57.228Z,56.37
2019-02-26T08:56:28.317Z,57.07
2019-02-26T08:58:58.991Z,56.17
2019-02-26T09:01:29.575Z,54.53
2019-02-26T09:04:00.681Z,60.30
2019-02-26T09:06:29.741Z,54.63
2019-02-26T09:09:00.209Z,58.60
2019-02-26T09:11:31.809Z,60.33
2019-02-26T09:14:03.903Z,62.10
2019-02-26T09:16:32.879Z,56.23
2019-02-26T09:19:02.501Z,59.53
2019-02-26T09:21:32.063Z,53.63
2019-02-26T09:24:04.230Z,59.40
2019-02-26T09:26:32.303Z,54.60
2019-02-26T09:29:01.551Z,58.70
2019-02-26T09:31:31.004Z,61.47
2019-02-26T09:34:00.585Z,68.67
2019-02-26T09:36:29.765Z,65.53
2019-02-26T09:38:59.457Z,63.97
2019-02-26T09:41:28.696Z,61.23
2019-02-26T09:43:59.416Z,60.13
2019-02-26T09:46:31.206Z,61.33
2019-02-26T09:49:02.603Z,60.43
2019-02-26T09:51:32.992Z,59.50
2019-02-26T09:54:03.006Z,58.40
2019-02-26T09:56:32.420Z,59.70
2019-02-26T09:59:02.821Z,61.27
2019-02-26T10:01:33.733Z,65.80
2019-02-26T10:04:05.389Z,57.80
2019-02-26T10:06:39.814Z,60.30
2019-02-26T10:09:10.856Z,58.17
2019-02-26T10:11:41.918Z,55.10
2019-02-26T10:14:12.609Z,59.30
2019-02-26T10:16:41.502Z,60.93
2019-02-26T10:19:12.570Z,61.67
2019-02-26T10:21:43.107Z,60.00
2019-02-26T10:24:12.926Z,62.70
2019-02-26T10:26:43.349Z,59.80
2019-02-26T10:29:32.516Z,59.10
2019-02-26T10:32:02.695Z,55.27
2019-02-26T10:34:32.021Z,57.47
2019-02-26T10:37:01.390Z,58.53
2019-02-26T10:39:32.059Z,55.57
2019-02-26T10:42:02.580Z,52.60
2019-02-26T10:44:32.083Z,56.17
2019-02-26T10:47:03.251Z,55.23
2019-02-26T10:49:32.239Z,56.67
2019-02-26T10:52:01.482Z,53.40
2019-02-26T10:54:34.581Z,47.87
2019-02-26T10:57:04.518Z,49.70
2019-02-26T10:59:32.643Z,49.20
2019-02-26T11:02:03.115Z,49.37
2019-02-26T11:04:35.554Z,50.40
2019-02-26T11:07:04.955Z,52.67
2019-02-26T11:09:34.175Z,45.07
2019-02-26T11:12:05.818Z,48.73
2019-02-26T11:14:36.240Z,44.33
2019-02-26T11:17:05.129Z,45.67
2019-02-26T11:19:38.290Z,45.93
2019-02-26T11:22:25.091Z,49.53
2019-02-26T11:24:56.104Z,47.20
2019-02-26T11:27:26.056Z,47.20
2019-02-26T11:29:57.809Z,49.93
2019-02-26T11:32:27.817Z,47.80
2019-02-26T11:34:57.592Z,47.63
2019-02-26T11:37:29.519Z,47.40
2019-02-26T11:40:00.472Z,44.03
2019-02-26T11:42:29.807Z,48.87
2019-02-26T11:44:59.027Z,47.90
2019-02-26T11:47:28.284Z,46.03
2019-02-26T11:49:59.511Z,46.37
2019-02-26T11:52:28.776Z,45.13
2019-02-26T11:54:58.829Z,46.03
2019-02-26T11:57:30.204Z,44.83
2019-02-26T12:00:01.863Z,42.97
2019-02-26T12:02:34.001Z,45.50
2019-02-26T12:05:05.464Z,46.10
2019-02-26T12:07:34.861Z,48.03
2019-02-26T12:10:09.493Z,46.37
2019-02-26T12:12:36.846Z,47.47
2019-02-26T12:15:10.081Z,44.90
2019-02-26T12:17:39.050Z,45.97
2019-02-26T12:20:12.114Z,42.40
2019-02-26T12:22:44.478Z,40.63
2019-02-26T12:25:12.576Z,44.00
2019-02-26T12:27:43.408Z,40.80
2019-02-26T12:30:18.092Z,40.93
2019-02-26T12:32:50.031Z,38.87
2019-02-26T12:35:19.396Z,38.17
2019-02-26T12:37:50.286Z,41.00
2019-02-26T12:40:22.142Z,42.53
2019-02-26T12:42:50.480Z,41.73
2019-02-26T12:45:22.730Z,42.27
2019-02-26T12:47:54.582Z,41.93
2019-02-26T12:50:26.392Z,36.97
2019-02-26T12:52:53.834Z,41.87
2019-02-26T12:55:29.673Z,41.63
2019-02-26T12:57:56.566Z,43.40
2019-02-26T13:00:26.435Z,43.67
2019-02-26T13:02:55.652Z,40.07
2019-02-26T13:05:24.962Z,38.40
2019-02-26T13:07:54.211Z,40.93
2019-02-26T13:10:23.848Z,38.80
2019-02-26T13:12:58.980Z,38.33
2019-02-26T13:15:24.128Z,42.40
2019-02-26T13:17:54.659Z,37.80
2019-02-26T13:20:24.284Z,41.17
2019-02-26T13:22:56.180Z,39.47
2019-02-26T13:25:26.734Z,41.47
2019-02-26T13:27:55.911Z,37.93
2019-02-26T13:30:25.200Z,39.03
2019-02-26T13:32:58.086Z,38.10
2019-02-26T13:35:25.293Z,37.43
2019-02-26T13:37:54.739Z,42.77
2019-02-26T13:40:23.952Z,40.20
2019-02-26T13:45:25.331Z,43.53
2019-02-26T13:48:00.849Z,38.47
2019-02-26T13:50:26.832Z,41.60
2019-02-26T13:52:56.052Z,44.47
2019-02-26T13:55:25.327Z,48.27
2019-02-26T13:57:54.599Z,47.90
2019-02-26T14:00:26.608Z,46.37
2019-02-26T14:02:55.200Z,46.67
2019-02-26T14:05:24.511Z,46.93
2019-02-26T14:07:53.725Z,47.00
2019-02-26T14:10:23.262Z,45.73
2019-02-26T14:12:52.480Z,47.43
2019-02-26T14:15:23.126Z,53.03
2019-02-26T14:17:52.539Z,52.23
2019-02-26T14:20:21.749Z,46.30
2019-02-26T14:22:50.999Z,53.40
2019-02-26T14:25:21.510Z,45.07
2019-02-26T14:27:50.784Z,45.73
2019-02-26T14:30:20.004Z,47.63
2019-02-26T14:32:49.227Z,48.83
2019-02-26T14:35:18.527Z,47.67
2019-02-26T14:37:47.771Z,45.80
2019-02-26T14:40:16.984Z,43.77
2019-02-26T14:42:46.433Z,44.87
2019-02-26T14:45:16.196Z,46.60
2019-02-26T14:47:45.476Z,47.20
2019-02-26T14:50:16.335Z,49.33
2019-02-26T14:52:46.231Z,51.30
2019-02-26T14:55:15.507Z,47.97
2019-02-26T14:57:44.724Z,46.53
2019-02-26T15:00:23.085Z,44.97
2019-02-26T15:02:52.359Z,50.23
2019-02-26T15:05:22.931Z,47.93
2019-02-26T15:07:52.247Z,49.60
2019-02-26T15:10:21.526Z,52.50
2019-02-26T15:12:50.734Z,47.93
2019-02-26T15:15:20.066Z,50.43
2019-02-26T15:17:49.231Z,52.67
2019-02-26T15:20:18.519Z,48.60
2019-02-26T15:22:47.731Z,47.60
2019-02-26T15:25:19.492Z,45.93
2019-02-26T15:27:48.715Z,47.13
2019-02-26T15:30:18.317Z,48.17
2019-02-26T15:33:11.000Z,42.63
2019-02-26T15:35:37.471Z,46.00
2019-02-26T15:38:06.695Z,46.53
2019-02-26T15:40:35.951Z,49.67
2019-02-26T15:43:05.159Z,49.43
2019-02-26T15:45:34.762Z,45.83
2019-02-26T15:48:04.623Z,46.77
2019-02-26T15:50:33.844Z,46.20
2019-02-26T15:53:03.037Z,47.37
2019-02-26T15:55:32.268Z,51.10
2019-02-26T15:58:04.001Z,48.10
2019-02-26T16:00:32.334Z,45.67
2019-02-26T16:03:01.532Z,48.20
2019-02-26T16:05:30.812Z,47.10
2019-02-26T16:08:00.011Z,46.57
2019-02-26T16:10:29.183Z,44.43
2019-02-26T16:13:04.427Z,42.43
2019-02-26T16:15:34.763Z,42.83
2019-02-26T16:18:04.029Z,50.60
2019-02-26T16:20:33.259Z,45.77
2019-02-26T16:23:02.490Z,42.67
2019-02-26T16:25:31.714Z,48.20
2019-02-26T16:28:00.916Z,50.53
2019-02-26T16:30:30.087Z,49.77
2019-02-26T16:32:59.335Z,50.80
2019-02-26T16:35:28.524Z,45.10
2019-02-26T16:37:57.756Z,47.13
2019-02-26T16:40:31.371Z,46.23
2019-02-26T16:42:57.854Z,45.47
2019-02-26T16:45:27.353Z,43.70
2019-02-26T16:47:57.401Z,49.17
2019-02-26T16:50:26.752Z,54.57
2019-02-26T16:52:57.962Z,61.60
2019-02-26T16:55:26.962Z,53.53
2019-02-26T16:57:56.166Z,49.47
2019-02-26T17:00:25.418Z,51.53
2019-02-26T17:02:54.672Z,51.73
2019-02-26T17:05:23.871Z,55.77
2019-02-26T17:07:53.083Z,62.97
2019-02-26T17:10:22.423Z,55.73
2019-02-26T17:12:53.983Z,58.50
2019-02-26T17:15:27.014Z,54.97
2019-02-26T17:17:56.237Z,55.90
2019-02-26T17:20:26.415Z,50.50
2019-02-26T17:22:55.854Z,60.33
2019-02-26T17:25:28.517Z,55.37
2019-02-26T17:27:55.969Z,58.97
2019-02-26T17:30:25.212Z,54.63
2019-02-26T17:32:54.412Z,53.83
2019-02-26T17:35:23.720Z,59.87
2019-02-26T17:37:52.892Z,60.53
2019-02-26T17:40:22.194Z,55.33
2019-02-26T17:42:51.977Z,54.03
2019-02-26T17:45:21.599Z,54.23
2019-02-26T17:47:50.839Z,55.20
2019-02-26T17:50:25.910Z,59.43
2019-02-26T17:52:55.039Z,61.53
2019-02-26T17:55:24.443Z,58.27
2019-02-26T17:57:53.610Z,62.83
2019-02-26T18:00:23.751Z,59.50
2019-02-26T18:02:52.944Z,62.33
2019-02-26T18:05:22.155Z,61.70
2019-02-26T18:07:51.443Z,60.80
2019-02-26T18:10:20.747Z,74.83
2019-02-26T18:12:49.939Z,59.57
2019-02-26T18:15:20.776Z,67.43
2019-02-26T18:17:50.151Z,65.33
2019-02-26T18:20:19.580Z,57.73
2019-02-26T18:22:48.781Z,62.97
2019-02-26T18:25:18.338Z,59.47
2019-02-26T18:27:47.547Z,58.73
2019-02-26T18:30:20.911Z,59.20
2019-02-26T18:32:50.787Z,82.23
2019-02-26T18:35:21.064Z,60.67
2019-02-26T18:37:50.236Z,73.00
2019-02-26T18:40:19.641Z,58.67
2019-02-26T18:42:48.862Z,59.67
2019-02-26T18:45:20.143Z,59.53
2019-02-26T18:47:49.343Z,63.70
2019-02-26T18:50:18.566Z,62.47
2019-02-26T18:52:47.748Z,53.70
2019-02-26T18:55:17.822Z,60.47
2019-02-26T18:57:47.431Z,83.83
2019-02-26T19:00:25.666Z,85.17
2019-02-26T19:02:52.673Z,66.37
2019-02-26T19:05:23.677Z,64.50
2019-02-26T19:07:53.143Z,70.73
2019-02-26T19:10:22.547Z,59.67
2019-02-26T19:12:51.759Z,55.87
2019-02-26T19:15:21.075Z,56.50
2019-02-26T19:17:51.784Z,85.97
2019-02-26T19:20:23.236Z,92.50
2019-02-26T19:22:52.535Z,86.37
2019-02-26T19:25:21.823Z,68.17
2019-02-26T19:27:53.108Z,80.00
2019-02-26T19:30:22.106Z,69.40
2019-02-26T19:32:51.366Z,82.20
2019-02-26T19:35:22.928Z,79.17
2019-02-26T19:37:55.245Z,81.33
2019-02-26T19:40:33.612Z,87.90
2019-02-26T19:43:02.716Z,87.13
2019-02-26T19:45:32.944Z,70.50
2019-02-26T19:48:02.420Z,64.70
2019-02-26T19:50:31.648Z,70.60
2019-02-26T19:53:02.535Z,67.03
2019-02-26T19:55:33.623Z,63.00
2019-02-26T19:58:05.738Z,89.23
2019-02-26T20:00:33.659Z,91.30
2019-02-26T20:03:05.476Z,77.07
2019-02-26T20:05:33.835Z,86.20
2019-02-26T20:08:05.429Z,81.40
2019-02-26T20:10:33.929Z,78.97
2019-02-26T20:13:04.139Z,80.10
2019-02-26T20:15:33.507Z,85.53
2019-02-26T20:18:03.049Z,73.83
2019-02-26T20:20:40.595Z,73.90
2019-02-26T20:23:05.984Z,66.93
2019-02-26T20:25:34.307Z,69.93
2019-02-26T20:28:05.519Z,68.23
2019-02-26T20:30:34.363Z,65.70
2019-02-26T20:33:03.935Z,67.03
2019-02-26T20:35:33.902Z,59.87
2019-02-26T20:38:03.158Z,57.90
2019-02-26T20:40:32.360Z,60.30
2019-02-26T20:43:01.923Z,64.67
2019-02-26T20:45:32.539Z,65.23
2019-02-26T20:48:04.230Z,56.47
2019-02-26T20:50:32.635Z,59.90
2019-02-26T20:53:05.623Z,58.63
2019-02-26T20:55:33.792Z,62.40
2019-02-26T20:58:03.106Z,86.03
2019-02-26T21:00:32.311Z,76.20
2019-02-26T21:03:01.596Z,78.30
2019-02-26T21:05:30.834Z,76.97
2019-02-26T21:08:00.031Z,75.27
2019-02-26T21:10:29.276Z,72.13
2019-02-26T21:13:01.638Z,77.73
2019-02-26T21:15:29.360Z,77.00
2019-02-26T21:17:58.714Z,84.97
2019-02-26T21:20:28.043Z,85.57
2019-02-26T21:22:57.259Z,79.57
2019-02-26T21:25:26.490Z,78.00
2019-02-26T21:27:55.697Z,78.60
2019-02-26T21:30:25.011Z,80.10
2019-02-26T21:32:57.803Z,82.17
2019-02-26T21:35:25.056Z,77.87
2019-02-26T21:37:54.252Z,77.57
2019-02-26T21:40:23.469Z,78.83
2019-02-26T21:42:52.680Z,80.30
2019-02-26T21:45:21.900Z,80.57
2019-02-26T21:47:51.084Z,83.27
2019-02-26T21:50:22.902Z,80.97
2019-02-26T21:53:06.575Z,76.90
2019-02-26T21:55:22.145Z,76.90
2019-02-26T21:57:54.543Z,81.43
2019-02-26T22:00:22.243Z,79.33
2019-02-26T22:02:52.382Z,79.33
2019-02-26T22:05:22.227Z,88.13
2019-02-26T22:07:52.377Z,78.10
2019-02-26T22:10:22.138Z,69.37
2019-02-26T22:12:51.342Z,65.33
2019-02-26T22:15:22.320Z,73.77
2019-02-26T22:17:51.536Z,80.77
2019-02-26T22:20:32.999Z,78.63
2019-02-26T22:22:51.816Z,81.33
2019-02-26T22:25:21.235Z,82.90
2019-02-26T22:27:50.396Z,81.07
2019-02-26T22:30:21.998Z,76.07
2019-02-26T22:32:50.923Z,76.33
2019-02-26T22:35:20.232Z,84.40
2019-02-26T22:37:49.436Z,76.87
2019-02-26T22:40:18.643Z,84.27
2019-02-26T22:42:47.965Z,92.97
2019-02-26T22:45:17.247Z,86.50
2019-02-26T22:47:46.451Z,83.83
2019-02-26T22:50:15.669Z,83.10
2019-02-26T22:52:44.871Z,83.20
2019-02-26T22:55:16.596Z,77.13
2019-02-26T22:57:44.934Z,82.23
2019-02-26T23:00:33.009Z,79.60
2019-02-26T23:03:02.795Z,76.90
2019-02-26T23:05:32.083Z,84.13
2019-02-26T23:08:01.339Z,81.63
2019-02-26T23:10:30.610Z,79.07
2019-02-26T23:12:59.839Z,76.77
2019-02-26T23:15:29.320Z,78.47
2019-02-26T23:17:58.992Z,80.10
2019-02-26T23:20:28.558Z,82.10
2019-02-26T23:22:57.767Z,79.07
2019-02-26T23:25:27.008Z,77.27
2019-02-26T23:27:56.322Z,74.60
2019-02-26T23:30:27.209Z,77.53
2019-02-26T23:32:56.475Z,79.47
2019-02-26T23:35:25.675Z,87.07
2019-02-26T23:37:55.767Z,77.73
2019-02-26T23:40:27.494Z,75.63
2019-02-26T23:42:55.905Z,75.80
2019-02-26T23:45:25.131Z,77.07
2019-02-26T23:47:54.348Z,71.20
2019-02-26T23:50:23.635Z,64.80
2019-02-26T23:52:52.844Z,76.50
2019-02-26T23:55:22.072Z,64.40
2019-02-26T23:57:51.348Z,71.67
